Bentonville, AR

8:56 AM CST on December 22, 2014 (GMT -0600)
Bentonville (Denali Park) | Change Station
CLOSE
Current Station
Personal Weather Station
Location: Bentonville, AR
Elevation: 1266 ft
Nearby Weather Stations

Elev 1266 ft 36.37 °N, 94.23 °W | Updated 14 seconds ago

Overcast
Overcast
46.6 °F
Feels Like 47 °F
N
1.1
Wind Variable Wind from SE
Gusts 1.1 mph

Today
High -- | Low -- °F
--% Chance of Precip.
Yesterday
High -- | Low -- °F
Precip. -- in
7:25 AM 5:06 PM
New Moon, 0% visible
Pressure 29.62 in
Visibility 9.0 miles
Clouds Overcast 1600 ft
Windchill 47 °F
Dew Point 46 °F
Humidity 96%
Rainfall 0.02 in
Snow Depth Not available.
UV 0 out of 12
Pollen 7.00 out of 12
Air Quality Not available.
Flu Activity Not available.
METAR KVBT 221435Z AUTO 15007KT 9SM OVC016 08/06 A2962 RMK AO1

More Conditions Fewer Conditions

Pressure 29.62 in
Visibility 9.0 miles
Clouds Overcast 1600 ft
Windchill 47 °F
Dew Point 46 °F
Humidity 96%
Rainfall 0.02 in
Snow Depth Not available.
UV 0 out of 12
Pollen 7.00 out of 12
Air Quality Not available.
Flu Activity Not available.
METAR KVBT 221435Z AUTO 15007KT 9SM OVC016 08/06 A2962 RMK AO1

More Conditions Fewer Conditions

Nowcast | as of 6:46 am CST on December 22, 2014

At 6:46 am...National Weather Service Doppler radars continued to detect patchy drizzle across portions of eastern Oklahoma and western Arkansas. Through 9:00 am...very light drizzle will continue across eastern Oklahoma and western Arkansas...especially north of Interstate 40. Precipitation amounts will be minimal...with no more than a trace to a couple hundredths of an inch expected. With temperatures well above freezing...minor visibility reductions in the heaviest drizzle should be the only travel impacts.

×

10-Day Weather Forecast

Almanac

Astronomy

Dec. 22, 2014 Rise Set
Actual Time
Civil Twilight
Nautical Twilight
Astronomical Twilight
Moon
Length of Visible Light
Length of Day
Tomorrow will be .
, % of the Moon is Illuminated

Today's Extremes

State Highs State Lows

Community

WunderPhotos

Upload Photos

1,779,608 photos uploaded!

WunderBlogs® & News

Nearby

Air Quality

  Air Quality AQ Index Pollutant
Not available.

Snow Depth

Station Depth Elevation

Earthquake Activity

City Distance Mag. Time & Date
Minimum magnitude displayed is 2.5.

Coastal Water Temperatures

Place Temperature

Nearby Weather Stations